Time;durP1;ratioP1;P1;durP2;ratioP2;P2;SDS_P1;SDS_P2;PMS_P1;PMS_P2;Temp;Humidity;BMP_temperature;BMP_pressure;BME280_temperature;BME280_humidity;BME280_pressure;Samples;Min_cycle;Max_cycle;Signal;HPM_P1;HPM_P2
2023/03/13 00:02:46;;;;;;;9.68;4.97;;;;;;;;;;6260228;28;20082;-60
2023/03/13 00:05:47;;;;;;;9.95;4.20;;;;;;;;;;6261911;28;20045;-60
2023/03/13 00:08:47;;;;;;;10.93;4.40;;;;;;;;;;6261085;28;20123;-60
2023/03/13 00:11:48;;;;;;;10.18;4.63;;;;;;;;;;6265959;28;20049;-61
2023/03/13 00:14:49;;;;;;;10.98;4.72;;;;;;;;;;6264868;28;20049;-59
2023/03/13 00:17:49;;;;;;;9.85;4.40;;;;;;;;;;6261369;28;20047;-60
2023/03/13 00:21:03;;;;;;;7.50;4.25;;;;;;;;;;6261108;28;20052;-60
2023/03/13 00:24:04;;;;;;;9.23;4.68;;;;;;;;;;6262017;28;20087;-60
2023/03/13 00:27:05;;;;;;;8.23;4.45;;;;;;;;;;6265901;28;20049;-60
2023/03/13 00:30:07;;;;;;;10.90;5.00;;;;;;;;;;6262937;28;20417;-60
2023/03/13 00:33:07;;;;;;;9.75;5.07;;;;;;;;;;6260299;28;20049;-60
2023/03/13 00:36:20;;;;;;;10.05;5.47;;;;;;;;;;6262082;28;20065;-61
2023/03/13 00:39:21;;;;;;;8.45;4.45;;;;;;;;;;6264812;28;21052;-60
2023/03/13 00:42:21;;;;;;;9.10;4.97;;;;;;;;;;6260846;28;20197;-60
2023/03/13 00:45:22;;;;;;;8.65;4.88;;;;;;;;;;6260651;28;20049;-59
2023/03/13 00:48:23;;;;;;;10.27;4.78;;;;;;;;;;6257813;28;20045;-60
2023/03/13 00:51:25;;;;;;;7.65;4.45;;;;;;;;;;6262661;28;20059;-60
2023/03/13 00:54:26;;;;;;;;;;;;;;;;;;6267113;28;20483;-59
2023/03/13 00:57:26;;;;;;;7.75;4.07;;;;;;;;;;6260145;28;19920;-60
2023/03/13 01:00:27;;;;;;;8.20;4.45;;;;;;;;;;6246532;28;20044;-58
2023/03/13 01:03:28;;;;;;;8.10;4.65;;;;;;;;;;6263751;28;20044;-59
2023/03/13 01:06:30;;;;;;;9.65;5.00;;;;;;;;;;6262545;28;20510;-60
2023/03/13 01:09:31;;;;;;;10.40;4.45;;;;;;;;;;6263310;28;20590;-60
2023/03/13 01:12:31;;;;;;;8.88;4.20;;;;;;;;;;6262440;28;20148;-60
2023/03/13 01:15:35;;;;;;;9.50;4.57;;;;;;;;;;6264734;28;20045;-60
2023/03/13 01:18:38;;;;;;;8.43;4.50;;;;;;;;;;6264462;28;20044;-60
2023/03/13 01:21:39;;;;;;;8.00;4.18;;;;;;;;;;6259983;28;20507;-59
2023/03/13 01:24:40;;;;;;;8.60;4.43;;;;;;;;;;6264079;28;20057;-60
2023/03/13 01:27:40;;;;;;;9.02;4.55;;;;;;;;;;6261311;28;20064;-59
2023/03/13 01:30:41;;;;;;;10.30;4.95;;;;;;;;;;6261706;28;20053;-60
2023/03/13 01:33:41;;;;;;;9.48;5.38;;;;;;;;;;6262717;28;20496;-60
2023/03/13 01:36:42;;;;;;;8.82;5.18;;;;;;;;;;6260928;28;20051;-60
2023/03/13 01:39:43;;;;;;;7.97;4.78;;;;;;;;;;6258254;28;20041;-60
2023/03/13 01:42:58;;;;;;;8.55;5.22;;;;;;;;;;6262007;28;20045;-60
2023/03/13 01:46:04;;;;;;;10.05;5.00;;;;;;;;;;6260144;28;20043;-60
2023/03/13 01:49:18;;;;;;;8.98;4.78;;;;;;;;;;6258783;28;20057;-60
2023/03/13 01:52:24;;;;;;;8.75;4.78;;;;;;;;;;6259704;28;20045;-60
2023/03/13 01:55:25;;;;;;;8.57;4.30;;;;;;;;;;6259940;28;20045;-60
2023/03/13 01:58:28;;;;;;;8.90;4.65;;;;;;;;;;6262791;28;20495;-60
2023/03/13 02:01:29;;;;;;;9.20;4.90;;;;;;;;;;6259564;28;20415;-59
2023/03/13 02:04:35;;;;;;;10.75;4.93;;;;;;;;;;6260258;28;20052;-61
2023/03/13 02:07:40;;;;;;;8.20;4.57;;;;;;;;;;6259749;28;20419;-58
2023/03/13 02:10:47;;;;;;;9.23;4.85;;;;;;;;;;6256932;28;20509;-60
2023/03/13 02:13:49;;;;;;;9.02;4.90;;;;;;;;;;6260426;28;20049;-58
2023/03/13 02:16:50;;;;;;;7.10;4.10;;;;;;;;;;6258548;28;20052;-61
2023/03/13 02:19:51;;;;;;;9.73;4.93;;;;;;;;;;6263729;28;20055;-60
2023/03/13 02:23:23;;;;;;;8.20;4.50;;;;;;;;;;6259881;28;20044;-60
2023/03/13 02:26:23;;;;;;;8.05;4.90;;;;;;;;;;6262021;28;20052;-59
2023/03/13 02:29:24;;;;;;;10.05;5.38;;;;;;;;;;6260895;28;20045;-60
2023/03/13 02:32:28;;;;;;;9.95;5.70;;;;;;;;;;6258551;28;20057;-58
2023/03/13 02:35:30;;;;;;;8.40;4.65;;;;;;;;;;6261667;28;20507;-60
2023/03/13 02:38:39;;;;;;;10.00;5.28;;;;;;;;;;6268196;28;20060;-60
2023/03/13 02:41:41;;;;;;;10.43;5.22;;;;;;;;;;6261114;28;20072;-60
2023/03/13 02:44:43;;;;;;;;;;;;;;;;;;6260452;28;20092;-60
2023/03/13 02:47:43;;;;;;;9.15;5.05;;;;;;;;;;6260423;28;20040;-60
2023/03/13 02:50:44;;;;;;;9.20;4.88;;;;;;;;;;6260515;28;20053;-60
2023/03/13 02:53:49;;;;;;;10.85;5.30;;;;;;;;;;6262823;28;20057;-59
2023/03/13 02:56:55;;;;;;;8.80;5.30;;;;;;;;;;6263542;28;20135;-60
2023/03/13 02:59:55;;;;;;;9.77;5.72;;;;;;;;;;6261997;28;20049;-60
2023/03/13 03:02:56;;;;;;;12.18;5.63;;;;;;;;;;6261725;28;20183;-61
2023/03/13 03:05:57;;;;;;;9.73;5.88;;;;;;;;;;6267863;28;20048;-59
2023/03/13 03:08:57;;;;;;;10.25;5.72;;;;;;;;;;6265211;28;20071;-60
2023/03/13 03:11:58;;;;;;;10.30;5.75;;;;;;;;;;6265477;28;20049;-61
2023/03/13 03:14:59;;;;;;;10.48;5.75;;;;;;;;;;6263197;28;20124;-61
2023/03/13 03:17:59;;;;;;;9.95;5.20;;;;;;;;;;6264666;28;20416;-61
2023/03/13 03:21:00;;;;;;;9.60;5.43;;;;;;;;;;6265677;28;20132;-60
2023/03/13 03:24:01;;;;;;;9.50;5.50;;;;;;;;;;6269169;28;20055;-60
2023/03/13 03:27:01;;;;;;;10.52;5.90;;;;;;;;;;6266631;28;20457;-60
2023/03/13 03:30:04;;;;;;;11.85;5.85;;;;;;;;;;6265432;28;20037;-60
2023/03/13 03:33:04;;;;;;;11.70;5.82;;;;;;;;;;6265127;28;20079;-61
2023/03/13 03:36:08;;;;;;;10.38;5.45;;;;;;;;;;6264181;28;20079;-60
2023/03/13 03:39:09;;;;;;;10.90;5.90;;;;;;;;;;6263485;28;20049;-60
2023/03/13 03:42:09;;;;;;;9.57;5.55;;;;;;;;;;6262910;28;20412;-61
2023/03/13 03:45:10;;;;;;;11.52;6.10;;;;;;;;;;6263424;28;20045;-60
2023/03/13 03:48:10;;;;;;;9.85;5.68;;;;;;;;;;6265228;28;20090;-61
2023/03/13 03:51:12;;;;;;;9.80;5.47;;;;;;;;;;6264001;28;20281;-60
2023/03/13 03:54:12;;;;;;;12.27;5.75;;;;;;;;;;6268263;28;20045;-60
2023/03/13 03:57:13;;;;;;;10.32;5.95;;;;;;;;;;6264270;28;20049;-60
2023/03/13 04:00:14;;;;;;;12.27;6.90;;;;;;;;;;6262847;28;20494;-60
2023/03/13 04:03:15;;;;;;;11.40;6.15;;;;;;;;;;6268736;28;20055;-61
2023/03/13 04:06:16;;;;;;;11.20;6.20;;;;;;;;;;6266327;28;20415;-60
2023/03/13 04:09:17;;;;;;;9.98;6.40;;;;;;;;;;6267948;28;20140;-60
2023/03/13 04:12:17;;;;;;;13.50;6.50;;;;;;;;;;6264110;28;20053;-60
2023/03/13 04:15:18;;;;;;;13.70;6.80;;;;;;;;;;6268486;28;20045;-61
2023/03/13 04:18:19;;;;;;;12.35;6.30;;;;;;;;;;6263815;28;20492;-60
2023/03/13 04:21:20;;;;;;;12.77;7.00;;;;;;;;;;6263294;28;20496;-59
2023/03/13 04:24:20;;;;;;;13.90;6.53;;;;;;;;;;6267751;28;20053;-60
2023/03/13 04:27:21;;;;;;;12.00;6.07;;;;;;;;;;6264174;28;20546;-60
2023/03/13 04:30:22;;;;;;;14.05;6.40;;;;;;;;;;6263837;28;20048;-59
2023/03/13 04:33:24;;;;;;;11.20;5.75;;;;;;;;;;6264789;28;20049;-60
2023/03/13 04:36:24;;;;;;;12.57;7.25;;;;;;;;;;6262222;28;20456;-60
2023/03/13 04:39:25;;;;;;;12.38;5.35;;;;;;;;;;6262204;28;20141;-61
2023/03/13 04:42:26;;;;;;;11.93;5.05;;;;;;;;;;6266288;28;20048;-58
2023/03/13 04:45:26;;;;;;;12.65;5.22;;;;;;;;;;6261721;28;20084;-60
2023/03/13 04:48:27;;;;;;;10.65;5.40;;;;;;;;;;6262064;28;20053;-60
2023/03/13 04:51:29;;;;;;;11.82;5.63;;;;;;;;;;6262615;28;20658;-60
2023/03/13 04:54:29;;;;;;;12.82;6.30;;;;;;;;;;6261576;28;20411;-60
2023/03/13 04:57:30;;;;;;;11.27;5.28;;;;;;;;;;6261774;28;20048;-60
2023/03/13 05:00:30;;;;;;;9.57;5.03;;;;;;;;;;6261939;28;20049;-60
2023/03/13 05:03:31;;;;;;;12.32;6.00;;;;;;;;;;6262674;28;20488;-59
2023/03/13 05:06:32;;;;;;;15.30;6.75;;;;;;;;;;6262586;28;20114;-60
2023/03/13 05:09:32;;;;;;;11.95;5.85;;;;;;;;;;6262563;28;20095;-60
2023/03/13 05:12:33;;;;;;;14.02;7.90;;;;;;;;;;6260508;28;20091;-60
2023/03/13 05:15:33;;;;;;;12.50;7.38;;;;;;;;;;6268452;28;20494;-60
2023/03/13 05:18:34;;;;;;;12.05;6.57;;;;;;;;;;6263939;28;20045;-60
2023/03/13 05:21:35;;;;;;;10.65;5.40;;;;;;;;;;6261999;28;20045;-59
2023/03/13 05:24:36;;;;;;;9.70;5.03;;;;;;;;;;6261534;28;20110;-60
2023/03/13 05:27:36;;;;;;;12.95;8.18;;;;;;;;;;6265548;28;20381;-60
2023/03/13 05:30:37;;;;;;;11.23;6.07;;;;;;;;;;6259258;28;20071;-60
2023/03/13 05:33:37;;;;;;;10.40;5.30;;;;;;;;;;6241848;28;20052;-61
2023/03/13 05:36:38;;;;;;;9.65;5.20;;;;;;;;;;6263048;28;20053;-60
2023/03/13 05:39:38;;;;;;;10.52;5.50;;;;;;;;;;6246475;28;20076;-60
2023/03/13 05:42:39;;;;;;;12.68;8.30;;;;;;;;;;6265051;28;20041;-60
2023/03/13 05:45:40;;;;;;;14.02;6.38;;;;;;;;;;6262121;28;20447;-60
2023/03/13 05:48:40;;;;;;;16.13;7.32;;;;;;;;;;6261015;28;20045;-60
2023/03/13 05:51:41;;;;;;;19.50;9.10;;;;;;;;;;6249910;28;20045;-60
2023/03/13 05:54:41;;;;;;;13.80;8.00;;;;;;;;;;6255901;28;20586;-60
2023/03/13 05:57:46;;;;;;;13.52;5.50;;;;;;;;;;6259638;28;20531;-60
2023/03/13 06:00:47;;;;;;;11.65;5.85;;;;;;;;;;6259116;28;20127;-60
2023/03/13 06:03:48;;;;;;;13.52;6.00;;;;;;;;;;6260108;28;20486;-60
2023/03/13 06:06:48;;;;;;;12.30;6.88;;;;;;;;;;6259334;28;20050;-60
2023/03/13 06:09:49;;;;;;;9.90;5.68;;;;;;;;;;6263279;28;20053;-60
2023/03/13 06:12:54;;;;;;;11.18;6.07;;;;;;;;;;6260696;28;20053;-60
2023/03/13 06:15:57;;;;;;;13.40;6.75;;;;;;;;;;6262797;28;20399;-60
2023/03/13 06:18:57;;;;;;;12.73;6.78;;;;;;;;;;6260905;28;20048;-60
2023/03/13 06:21:58;;;;;;;14.65;6.82;;;;;;;;;;6261716;28;20041;-58
2023/03/13 06:24:58;;;;;;;13.52;6.75;;;;;;;;;;6261882;28;20048;-60
2023/03/13 06:27:59;;;;;;;14.80;8.32;;;;;;;;;;6264022;28;20115;-60
2023/03/13 06:31:04;;;;;;;14.43;6.80;;;;;;;;;;6259685;28;20112;-60
2023/03/13 06:34:05;;;;;;;16.30;7.32;;;;;;;;;;6265578;28;20500;-60
2023/03/13 06:37:05;;;;;;;15.93;7.53;;;;;;;;;;6263844;28;20048;-60
2023/03/13 06:40:07;;;;;;;15.70;8.35;;;;;;;;;;6260118;28;20485;-60
2023/03/13 06:43:07;;;;;;;15.57;6.78;;;;;;;;;;6260594;28;20055;-60
2023/03/13 06:46:16;;;;;;;14.55;6.97;;;;;;;;;;6255779;28;20424;-60
2023/03/13 06:49:16;;;;;;;13.75;6.82;;;;;;;;;;6260323;28;20403;-60
2023/03/13 06:52:17;;;;;;;15.20;7.13;;;;;;;;;;6263709;28;20048;-60
2023/03/13 06:55:18;;;;;;;13.50;7.05;;;;;;;;;;6264013;28;20045;-61
2023/03/13 06:58:18;;;;;;;16.35;6.70;;;;;;;;;;6264255;28;20454;-59
2023/03/13 07:01:19;;;;;;;14.27;7.65;;;;;;;;;;6263852;28;20492;-61
2023/03/13 07:04:20;;;;;;;15.93;6.95;;;;;;;;;;6259131;28;20499;-61
2023/03/13 07:07:20;;;;;;;15.38;6.97;;;;;;;;;;6256765;28;20048;-61
2023/03/13 07:10:21;;;;;;;18.95;7.80;;;;;;;;;;6262154;28;20053;-61
2023/03/13 07:13:21;;;;;;;20.33;7.70;;;;;;;;;;6258678;28;20049;-61
2023/03/13 07:16:22;;;;;;;15.27;7.15;;;;;;;;;;6264921;28;20048;-59
2023/03/13 07:19:23;;;;;;;12.43;6.63;;;;;;;;;;6263904;28;20422;-61
2023/03/13 07:22:23;;;;;;;15.75;6.80;;;;;;;;;;6263989;28;20762;-61
2023/03/13 07:25:24;;;;;;;17.38;7.43;;;;;;;;;;6265970;28;20454;-61
2023/03/13 07:28:26;;;;;;;12.73;6.80;;;;;;;;;;6262372;28;20520;-61
2023/03/13 07:31:28;;;;;;;14.27;6.22;;;;;;;;;;6263403;28;20502;-60
2023/03/13 07:34:29;;;;;;;14.15;6.32;;;;;;;;;;6259227;28;20041;-61
2023/03/13 07:37:30;;;;;;;13.20;6.30;;;;;;;;;;6259104;28;20037;-61
2023/03/13 07:40:30;;;;;;;14.48;6.00;;;;;;;;;;6267584;28;20045;-61
2023/03/13 07:43:31;;;;;;;13.07;5.65;;;;;;;;;;6259964;28;20442;-61
2023/03/13 07:46:32;;;;;;;15.13;6.25;;;;;;;;;;6259928;28;20053;-61
2023/03/13 07:49:38;;;;;;;13.77;6.10;;;;;;;;;;6258771;28;20060;-61
2023/03/13 07:52:38;;;;;;;11.77;5.78;;;;;;;;;;6265098;28;20532;-60
2023/03/13 07:55:39;;;;;;;13.25;5.65;;;;;;;;;;6265717;28;20056;-60
2023/03/13 07:58:41;;;;;;;10.55;5.25;;;;;;;;;;6264558;28;20056;-60
2023/03/13 08:01:42;;;;;;;11.95;6.05;;;;;;;;;;6271306;28;20084;-60
2023/03/13 08:04:42;;;;;;;12.43;6.40;;;;;;;;;;6263406;28;20110;-60
2023/03/13 08:07:43;;;;;;;12.68;5.82;;;;;;;;;;6269271;28;20404;-60
2023/03/13 08:10:44;;;;;;;19.05;6.20;;;;;;;;;;6266821;28;20459;-60
2023/03/13 08:13:46;;;;;;;15.05;5.78;;;;;;;;;;6264196;28;20052;-60
2023/03/13 08:16:46;;;;;;;16.27;5.72;;;;;;;;;;6264233;28;20080;-60
2023/03/13 08:19:47;;;;;;;14.32;6.72;;;;;;;;;;6269333;28;20042;-60
2023/03/13 08:22:49;;;;;;;12.13;6.40;;;;;;;;;;6264535;28;20068;-61
2023/03/13 08:25:49;;;;;;;18.10;6.65;;;;;;;;;;6267619;28;20056;-60
2023/03/13 08:28:56;;;;;;;11.30;5.45;;;;;;;;;;6263305;28;20110;-61
2023/03/13 08:31:56;;;;;;;13.52;5.97;;;;;;;;;;6263794;28;20041;-61
2023/03/13 08:34:57;;;;;;;12.20;5.40;;;;;;;;;;6264662;28;20397;-61
2023/03/13 08:37:57;;;;;;;13.05;5.80;;;;;;;;;;6265025;28;20041;-61
2023/03/13 08:40:58;;;;;;;14.02;6.47;;;;;;;;;;6250666;28;20190;-61
2023/03/13 08:43:58;;;;;;;11.43;5.95;;;;;;;;;;6268459;28;20053;-61
2023/03/13 08:46:59;;;;;;;14.05;6.40;;;;;;;;;;6262504;28;20430;-61
2023/03/13 08:50:00;;;;;;;14.35;6.85;;;;;;;;;;6270589;28;20052;-61
2023/03/13 08:53:01;;;;;;;13.75;6.20;;;;;;;;;;6267866;28;20045;-61
2023/03/13 08:56:03;;;;;;;15.85;6.00;;;;;;;;;;6265178;28;20045;-60
2023/03/13 08:59:04;;;;;;;12.48;6.03;;;;;;;;;;6261772;28;20049;-60
2023/03/13 09:02:05;;;;;;;14.05;5.65;;;;;;;;;;6266107;28;20052;-61
2023/03/13 09:05:06;;;;;;;11.73;5.95;;;;;;;;;;6265748;28;20080;-61
2023/03/13 09:08:07;;;;;;;10.93;5.15;;;;;;;;;;6262100;28;20041;-60
2023/03/13 09:11:11;;;;;;;12.27;5.20;;;;;;;;;;6262169;28;20037;-61
2023/03/13 09:14:12;;;;;;;11.50;4.90;;;;;;;;;;6258758;28;20835;-61
2023/03/13 09:17:12;;;;;;;11.75;4.90;;;;;;;;;;6260934;28;20052;-61
2023/03/13 09:20:13;;;;;;;11.95;5.30;;;;;;;;;;6262808;28;20451;-61
2023/03/13 09:23:13;;;;;;;12.95;5.47;;;;;;;;;;6263576;28;20041;-61
2023/03/13 09:26:15;;;;;;;12.35;5.35;;;;;;;;;;6260586;28;20064;-61
2023/03/13 09:29:16;;;;;;;13.85;5.90;;;;;;;;;;6262019;28;20048;-60
2023/03/13 09:32:19;;;;;;;13.55;5.28;;;;;;;;;;6263945;28;20068;-61
2023/03/13 09:35:19;;;;;;;13.75;5.35;;;;;;;;;;6261102;28;20041;-61
2023/03/13 09:38:20;;;;;;;13.30;6.60;;;;;;;;;;6261062;28;20122;-61
2023/03/13 09:41:23;;;;;;;14.57;5.60;;;;;;;;;;6265522;28;20630;-61
2023/03/13 09:44:42;;;;;;;13.27;5.40;;;;;;;;;;6263619;28;20120;-61
2023/03/13 09:47:49;;;;;;;8.82;4.60;;;;;;;;;;6259353;28;20506;-61
2023/03/13 09:51:02;;;;;;;11.45;5.03;;;;;;;;;;6259983;28;20090;-61
2023/03/13 09:54:13;;;;;;;9.35;4.78;;;;;;;;;;6258591;28;20408;-61
2023/03/13 09:57:24;;;;;;;10.93;4.80;;;;;;;;;;6259359;28;20140;-61
2023/03/13 10:00:35;;;;;;;10.70;4.63;;;;;;;;;;6257578;28;20537;-61
2023/03/13 10:03:54;;;;;;;8.65;4.30;;;;;;;;;;6258224;28;20049;-61
2023/03/13 10:06:55;;;;;;;12.40;3.90;;;;;;;;;;6259801;28;20049;-60
2023/03/13 10:09:57;;;;;;;15.43;3.88;;;;;;;;;;6265864;28;20475;-61
2023/03/13 10:13:09;;;;;;;9.20;3.78;;;;;;;;;;6263170;28;20098;-60
2023/03/13 10:16:31;;;;;;;10.30;4.35;;;;;;;;;;6262336;28;20110;-61
2023/03/13 10:19:36;;;;;;;9.70;4.05;;;;;;;;;;6260355;28;20048;-61
2023/03/13 10:22:38;;;;;;;10.40;3.83;;;;;;;;;;6256691;28;20052;-61
2023/03/13 10:25:39;;;;;;;7.43;3.42;;;;;;;;;;6266480;28;20040;-60
2023/03/13 10:28:40;;;;;;;8.45;3.25;;;;;;;;;;6262944;28;20072;-60
2023/03/13 10:31:48;;;;;;;10.02;3.88;;;;;;;;;;6260888;28;20061;-61
2023/03/13 10:34:55;;;;;;;8.45;3.28;;;;;;;;;;6260311;28;20107;-61
2023/03/13 10:38:11;;;;;;;7.82;3.05;;;;;;;;;;6259321;28;20045;-61
2023/03/13 10:41:30;;;;;;;11.50;2.40;;;;;;;;;;6261981;28;20048;-61
2023/03/13 10:44:32;;;;;;;6.55;2.15;;;;;;;;;;6265190;28;20134;-60
2023/03/13 10:47:36;;;;;;;8.98;2.88;;;;;;;;;;6260965;28;20048;-60
2023/03/13 10:50:42;;;;;;;8.75;3.25;;;;;;;;;;6261061;28;20041;-60
2023/03/13 10:53:42;;;;;;;10.07;3.70;;;;;;;;;;6260921;28;20091;-60
2023/03/13 10:56:43;;;;;;;8.80;3.30;;;;;;;;;;6258859;28;20045;-60
2023/03/13 10:59:51;;;;;;;8.13;3.63;;;;;;;;;;6261866;28;20048;-60
2023/03/13 11:02:53;;;;;;;8.10;3.65;;;;;;;;;;6257747;28;20052;-61
2023/03/13 11:05:59;;;;;;;12.77;4.40;;;;;;;;;;6262333;28;20048;-61
2023/03/13 11:09:04;;;;;;;11.98;3.42;;;;;;;;;;6266675;28;20045;-60
2023/03/13 11:12:19;;;;;;;8.13;3.20;;;;;;;;;;6262872;28;20037;-60
2023/03/13 11:15:26;;;;;;;11.93;4.15;;;;;;;;;;6266388;28;20052;-61
2023/03/13 11:18:43;;;;;;;10.18;3.10;;;;;;;;;;6263143;28;20079;-61
2023/03/13 11:21:59;;;;;;;8.18;3.17;;;;;;;;;;6264321;28;20041;-61
2023/03/13 11:25:11;;;;;;;9.45;4.03;;;;;;;;;;6243019;28;20072;-60
2023/03/13 11:28:28;;;;;;;10.15;3.22;;;;;;;;;;6258908;28;20581;-61
2023/03/13 11:31:43;;;;;;;9.20;2.80;;;;;;;;;;6264989;28;20122;-61
2023/03/13 11:34:53;;;;;;;8.82;3.00;;;;;;;;;;6263761;28;20059;-60
2023/03/13 11:37:56;;;;;;;10.32;2.97;;;;;;;;;;6261790;28;20132;-61
2023/03/13 11:41:09;;;;;;;6.60;2.53;;;;;;;;;;6264034;28;20037;-61
2023/03/13 11:44:45;;;;;;;7.47;2.50;;;;;;;;;;6262484;28;20123;-60
2023/03/13 11:48:17;;;;;;;12.48;2.65;;;;;;;;;;6268500;28;20506;-60
2023/03/13 11:51:43;;;;;;;7.10;2.80;;;;;;;;;;6267002;28;20094;-61
2023/03/13 11:54:53;;;;;;;7.70;3.15;;;;;;;;;;6262895;28;20098;-61
2023/03/13 11:58:27;;;;;;;7.63;2.90;;;;;;;;;;6263137;28;20537;-61
2023/03/13 12:01:34;;;;;;;7.80;2.92;;;;;;;;;;6263453;28;20552;-61
2023/03/13 12:04:50;;;;;;;6.30;2.65;;;;;;;;;;6263979;28;20060;-60
2023/03/13 12:08:17;;;;;;;9.57;3.25;;;;;;;;;;6262795;28;20041;-61
2023/03/13 12:11:29;;;;;;;7.22;2.80;;;;;;;;;;6263332;28;20095;-61
2023/03/13 12:14:35;;;;;;;;;;;;;;;;;;6262459;28;20847;-61
2023/03/13 12:17:40;;;;;;;7.00;3.00;;;;;;;;;;6268718;28;20439;-61
2023/03/13 12:20:48;;;;;;;6.88;2.70;;;;;;;;;;6264254;28;20053;-60
2023/03/13 12:23:49;;;;;;;5.30;2.60;;;;;;;;;;6267912;28;20114;-61
2023/03/13 12:27:16;;;;;;;6.70;2.90;;;;;;;;;;6261993;28;20041;-61
2023/03/13 12:30:32;;;;;;;6.03;2.53;;;;;;;;;;6268996;28;20048;-61
2023/03/13 12:34:02;;;;;;;5.80;2.47;;;;;;;;;;6262437;28;20049;-61
2023/03/13 12:37:32;;;;;;;6.85;2.35;;;;;;;;;;6244950;28;20053;-61
2023/03/13 12:40:50;;;;;;;5.35;2.85;;;;;;;;;;6250690;28;20053;-60
2023/03/13 12:43:53;;;;;;;6.55;3.28;;;;;;;;;;6259486;28;20045;-60
2023/03/13 12:47:06;;;;;;;7.40;3.08;;;;;;;;;;6262076;28;20098;-61
2023/03/13 12:50:22;;;;;;;8.32;2.80;;;;;;;;;;6261587;28;20048;-61
2023/03/13 12:53:32;;;;;;;5.90;3.10;;;;;;;;;;6264120;28;20411;-61
2023/03/13 12:56:59;;;;;;;6.40;3.33;;;;;;;;;;6263660;28;20049;-60
2023/03/13 13:00:05;;;;;;;6.20;2.83;;;;;;;;;;6263859;28;20102;-61
2023/03/13 13:03:23;;;;;;;8.73;3.25;;;;;;;;;;6267750;28;20045;-61
2023/03/13 13:06:24;;;;;;;7.57;3.25;;;;;;;;;;6244559;28;20743;-61
2023/03/13 13:09:29;;;;;;;6.55;3.40;;;;;;;;;;6262984;28;20442;-60
2023/03/13 13:12:30;;;;;;;6.20;3.15;;;;;;;;;;6266322;28;20049;-61
2023/03/13 13:15:31;;;;;;;5.63;3.13;;;;;;;;;;6264774;28;20475;-61
2023/03/13 13:18:33;;;;;;;6.53;3.30;;;;;;;;;;6261783;28;20057;-61
2023/03/13 13:21:35;;;;;;;6.90;3.53;;;;;;;;;;6262961;28;20488;-60
2023/03/13 13:24:48;;;;;;;9.70;5.45;;;;;;;;;;6263882;28;20408;-60
2023/03/13 13:27:49;;;;;;;8.05;4.78;;;;;;;;;;6264751;28;20492;-60
2023/03/13 13:30:51;;;;;;;7.63;3.60;;;;;;;;;;6263411;28;20428;-60
2023/03/13 13:33:51;;;;;;;6.63;3.65;;;;;;;;;;6262709;28;20324;-60
2023/03/13 13:37:23;;;;;;;8.35;4.03;;;;;;;;;;6259804;28;20144;-60
2023/03/13 13:40:30;;;;;;;7.43;3.28;;;;;;;;;;6265448;28;20128;-61
2023/03/13 13:43:35;;;;;;;6.88;3.50;;;;;;;;;;6263544;28;20048;-61
2023/03/13 13:46:44;;;;;;;6.07;3.20;;;;;;;;;;6266178;28;20079;-60
2023/03/13 13:49:56;;;;;;;7.82;3.75;;;;;;;;;;6261920;28;20416;-60
2023/03/13 13:53:32;;;;;;;9.63;4.90;;;;;;;;;;6265625;28;20492;-61
2023/03/13 13:56:40;;;;;;;9.60;5.03;;;;;;;;;;6260984;28;20474;-61
2023/03/13 13:59:48;;;;;;;7.82;4.35;;;;;;;;;;6261154;28;20124;-61
2023/03/13 14:02:51;;;;;;;8.02;4.05;;;;;;;;;;6262585;28;20048;-60
2023/03/13 14:06:12;;;;;;;7.38;3.53;;;;;;;;;;6261564;28;20068;-60
2023/03/13 14:09:50;;;;;;;9.98;3.95;;;;;;;;;;6267737;28;20076;-61
2023/03/13 14:12:53;;;;;;;9.38;4.13;;;;;;;;;;6264289;28;20041;-61
2023/03/13 14:15:54;;;;;;;8.45;3.85;;;;;;;;;;6263377;28;20488;-61
2023/03/13 14:18:54;;;;;;;9.23;4.10;;;;;;;;;;6264400;28;20056;-61
2023/03/13 14:22:04;;;;;;;7.75;3.75;;;;;;;;;;6260535;28;20175;-60
2023/03/13 14:25:05;;;;;;;7.82;3.40;;;;;;;;;;6262014;28;20045;-60
2023/03/13 14:28:20;;;;;;;11.48;4.30;;;;;;;;;;6261908;28;20110;-60
2023/03/13 14:31:32;;;;;;;8.77;4.30;;;;;;;;;;6266272;28;20055;-60
2023/03/13 14:34:32;;;;;;;;;;;;;;;;;;6264619;28;20511;-60
2023/03/13 14:37:41;;;;;;;11.02;5.30;;;;;;;;;;6263329;28;19988;-60
2023/03/13 14:40:41;;;;;;;11.02;5.80;;;;;;;;;;6263461;28;20487;-59
2023/03/13 14:43:42;;;;;;;30.83;17.77;;;;;;;;;;6259886;28;20103;-60
2023/03/13 14:46:43;;;;;;;18.25;10.40;;;;;;;;;;6261265;28;20056;-60
2023/03/13 14:49:45;;;;;;;13.20;9.20;;;;;;;;;;6256945;28;20176;-60
2023/03/13 14:52:48;;;;;;;;;;;;;;;;;;6263043;28;20080;-60
2023/03/13 14:56:17;;;;;;;9.20;5.18;;;;;;;;;;6264591;28;20002;-59
2023/03/13 14:59:24;;;;;;;8.32;4.57;;;;;;;;;;6262190;28;20056;-59
2023/03/13 15:02:31;;;;;;;9.82;6.07;;;;;;;;;;6268598;28;20057;-59
2023/03/13 15:05:33;;;;;;;10.55;6.15;;;;;;;;;;6268549;28;20089;-59
2023/03/13 15:08:37;;;;;;;14.73;6.83;;;;;;;;;;6270084;28;20093;-61
2023/03/13 15:11:41;;;;;;;11.20;7.07;;;;;;;;;;6263643;28;20335;-61
2023/03/13 15:14:47;;;;;;;19.92;8.18;;;;;;;;;;6265571;28;20037;-61
2023/03/13 15:17:49;;;;;;;38.78;14.63;;;;;;;;;;6264816;28;20055;-60
2023/03/13 15:20:51;;;;;;;29.37;15.97;;;;;;;;;;6257923;28;20045;-61
2023/03/13 15:23:58;;;;;;;;;;;;;;;;;;6249365;28;21046;-61
2023/03/13 15:26:58;;;;;;;30.73;8.95;;;;;;;;;;6255211;28;19931;-60
2023/03/13 15:29:59;;;;;;;41.40;18.27;;;;;;;;;;6254926;28;20084;-60
2023/03/13 15:32:59;;;;;;;15.05;9.38;;;;;;;;;;6253659;28;20045;-60
2023/03/13 15:36:00;;;;;;;28.95;12.00;;;;;;;;;;6253699;28;20053;-58
2023/03/13 15:39:02;;;;;;;16.27;7.50;;;;;;;;;;6255157;28;20048;-59
2023/03/13 15:42:03;;;;;;;14.82;7.55;;;;;;;;;;6249693;28;20048;-60
2023/03/13 15:45:04;;;;;;;8.18;4.28;;;;;;;;;;6251231;28;20506;-59
2023/03/13 15:48:14;;;;;;;8.65;4.25;;;;;;;;;;6253089;28;20049;-60
2023/03/13 15:51:16;;;;;;;17.27;8.20;;;;;;;;;;6254997;28;20045;-61
2023/03/13 15:54:17;;;;;;;9.77;5.00;;;;;;;;;;6258774;28;20041;-59
2023/03/13 15:57:22;;;;;;;8.30;4.68;;;;;;;;;;6260015;28;20040;-60
2023/03/13 16:00:25;;;;;;;9.07;4.82;;;;;;;;;;6260911;28;20128;-60
2023/03/13 16:03:27;;;;;;;10.00;4.78;;;;;;;;;;6257107;28;20049;-58
2023/03/13 16:06:30;;;;;;;9.43;4.72;;;;;;;;;;6259849;28;20049;-61
2023/03/13 16:09:30;;;;;;;;;;;;;;;;;;6260273;28;20092;-61
2023/03/13 16:12:31;;;;;;;8.52;4.07;;;;;;;;;;6256387;28;19929;-60
2023/03/13 16:15:32;;;;;;;8.68;4.30;;;;;;;;;;6258952;28;20106;-59
2023/03/13 16:18:32;;;;;;;8.63;4.50;;;;;;;;;;6258193;28;20874;-61
2023/03/13 16:21:33;;;;;;;8.35;4.55;;;;;;;;;;6257588;28;20163;-60
2023/03/13 16:24:34;;;;;;;10.10;4.60;;;;;;;;;;6258796;28;20152;-58
2023/03/13 16:27:35;;;;;;;9.52;4.90;;;;;;;;;;6259231;28;20065;-60
2023/03/13 16:30:36;;;;;;;10.57;5.55;;;;;;;;;;6260210;28;20060;-60
2023/03/13 16:33:36;;;;;;;11.32;7.03;;;;;;;;;;6255834;28;20081;-59
2023/03/13 16:36:37;;;;;;;27.88;17.60;;;;;;;;;;6260618;28;20399;-73
2023/03/13 16:39:37;;;;;;;25.85;12.88;;;;;;;;;;6260913;28;20385;-60
2023/03/13 16:42:38;;;;;;;15.88;7.97;;;;;;;;;;6256574;28;20855;-58
2023/03/13 16:45:39;;;;;;;10.32;5.68;;;;;;;;;;6241278;28;21262;-58
2023/03/13 16:48:40;;;;;;;13.75;8.43;;;;;;;;;;6252916;28;20072;-58
2023/03/13 16:51:40;;;;;;;33.40;11.07;;;;;;;;;;6229933;28;20053;-60
2023/03/13 16:54:42;;;;;;;16.00;9.32;;;;;;;;;;6246584;28;20832;-61
2023/03/13 16:57:42;;;;;;;19.15;11.68;;;;;;;;;;6246280;28;21044;-59
2023/03/13 17:00:43;;;;;;;15.82;8.68;;;;;;;;;;6247712;28;20057;-60
2023/03/13 17:03:44;;;;;;;41.30;16.67;;;;;;;;;;6243343;28;20069;-59
2023/03/13 17:06:45;;;;;;;13.57;8.13;;;;;;;;;;6248360;28;20065;-60
2023/03/13 17:09:46;;;;;;;15.05;8.27;;;;;;;;;;6246542;28;20041;-59
2023/03/13 17:12:48;;;;;;;17.55;10.07;;;;;;;;;;6245745;28;20047;-59
2023/03/13 17:15:49;;;;;;;49.17;18.27;;;;;;;;;;6249121;28;20507;-61
2023/03/13 17:18:52;;;;;;;19.63;9.13;;;;;;;;;;6248668;28;20044;-61
2023/03/13 17:21:52;;;;;;;12.80;7.60;;;;;;;;;;6248854;28;20053;-59
2023/03/13 17:24:53;;;;;;;14.85;8.32;;;;;;;;;;6249991;28;20052;-60
2023/03/13 17:27:53;;;;;;;17.13;7.93;;;;;;;;;;6232777;28;20492;-60
2023/03/13 17:30:54;;;;;;;14.68;7.50;;;;;;;;;;6250226;28;20090;-62
2023/03/13 17:33:55;;;;;;;11.48;5.75;;;;;;;;;;6245165;28;20407;-61
2023/03/13 17:36:56;;;;;;;11.32;5.72;;;;;;;;;;6248534;28;20049;-60
2023/03/13 17:39:56;;;;;;;10.43;5.28;;;;;;;;;;6252429;28;20064;-60
2023/03/13 17:42:57;;;;;;;8.85;4.78;;;;;;;;;;6245136;28;20154;-60
2023/03/13 17:45:58;;;;;;;14.27;7.18;;;;;;;;;;6249264;28;20041;-60
2023/03/13 17:49:00;;;;;;;12.98;6.63;;;;;;;;;;6249938;28;20132;-60
2023/03/13 17:52:00;;;;;;;14.02;6.32;;;;;;;;;;6244887;28;20143;-60
2023/03/13 17:55:01;;;;;;;26.50;9.60;;;;;;;;;;6252746;28;20618;-60
2023/03/13 17:58:02;;;;;;;19.95;8.40;;;;;;;;;;6254642;28;20049;-57
2023/03/13 18:01:02;;;;;;;17.65;7.35;;;;;;;;;;6252788;28;20045;-57
2023/03/13 18:04:03;;;;;;;33.67;19.55;;;;;;;;;;6247760;28;20052;-57
2023/03/13 18:07:23;;;;;;;25.95;15.18;;;;;;;;;;6253813;28;20052;-55
2023/03/13 18:10:27;;;;;;;62.63;18.77;;;;;;;;;;6254356;28;20080;-57
2023/03/13 18:13:28;;;;;;;87.72;27.10;;;;;;;;;;6245392;28;20056;-55
2023/03/13 18:16:42;;;;;;;25.50;14.95;;;;;;;;;;6246248;28;20075;-54